Etusivu
METAR-TAF:

METAR-TAF

Lentoasemat :

Iranshahr, Iran

Leveyspiiri: 27-12N, Pituuspiiri: 060-42E, korkeus merenpinnasta: 591 m

Tämänhetkinen sää

Tämä raportti tehtiin 1 tunti ja 15 minuuttia sitten, kello 11.00 UTC
Tuuli 8 kn lännestä/luoteesta
Lämpötila 44°C
Kosteus 11%
Ilmanpaine 1000 hPa
Näkyvyys 10 km tai enemmän
Muutamia pilviä 4000 ft:n korkeudessa

METAR: OIZI 221100Z 30008KT 9999 FEW040 44/07 Q1000

Aika: 16:45 (12:15 UTC)


TAF: puuttuu

Säähavainnot ja -ennusteet yli 4000 lentoasemalta (METAR- ja TAF-raportit).

Käytössä olevat sääasemat on merkitty karttaan keltaisilla ja punaisilla pisteillä.

Aseta hiiri pisteen päälle nähdäksesi sääaseman nimen.

Klikkaa sitten nähdäksesi säähavainnot ja -ennusteet.

Kartan vaihtaminen: klikkaa mustalla rastilla varustettuja vihreitä pisteitä, niin voit zoomata sisään; viivalla varustettua vihreää pistettä, niin voit zoomata ulos tai vihreitä nuolia, niin pääset viereisille kartoille.


METAR-TAF: